Time;durP1;ratioP1;P1;durP2;ratioP2;P2;SDS_P1;SDS_P2;PMS_P1;PMS_P2;Temp;Humidity;BMP_temperature;BMP_pressure;BME280_temperature;BME280_humidity;BME280_pressure;Samples;Min_cycle;Max_cycle;Signal;HPM_P1;HPM_P2
2023/08/04 00:01:58;;;;;;;;;;;;;;;26.71;33.25;99108.50;6155220;23;19923;-64
2023/08/04 00:04:23;;;;;;;;;;;;;;;26.68;33.31;99118.25;6155231;23;20323;-64
2023/08/04 00:06:48;;;;;;;;;;;;;;;26.64;33.23;99120.06;6155233;23;19913;-63
2023/08/04 00:09:13;;;;;;;;;;;;;;;26.61;33.02;99116.00;6155471;23;20327;-64
2023/08/04 00:11:39;;;;;;;;;;;;;;;26.61;33.40;99115.22;6155341;23;19915;-64
2023/08/04 00:14:04;;;;;;;;;;;;;;;26.56;33.25;99118.94;6155406;23;19915;-63
2023/08/04 00:16:29;;;;;;;;;;;;;;;26.53;33.22;99122.34;6155522;23;19931;-64
2023/08/04 00:18:55;;;;;;;;;;;;;;;26.50;33.03;99122.22;6156029;23;19909;-64
2023/08/04 00:21:20;;;;;;;;;;;;;;;26.50;33.29;99124.97;6155855;23;20291;-63
2023/08/04 00:23:45;;;;;;;;;;;;;;;26.50;33.61;99127.72;6155721;23;19983;-64
2023/08/04 00:26:11;;;;;;;;;;;;;;;26.46;33.39;99133.09;6155171;23;20366;-64
2023/08/04 00:28:36;;;;;;;;;;;;;;;26.43;33.68;99137.31;6155039;23;19908;-64
2023/08/04 00:31:01;;;;;;;;;;;;;;;26.41;33.48;99138.78;6154886;23;19916;-63
2023/08/04 00:33:26;;;;;;;;;;;;;;;26.37;33.39;99132.31;6154996;23;20344;-63
2023/08/04 00:35:52;;;;;;;;;;;;;;;26.32;33.56;99136.09;6155309;23;19912;-64
2023/08/04 00:38:17;;;;;;;;;;;;;;;26.28;33.58;99143.41;6155349;23;19923;-63
2023/08/04 00:40:42;;;;;;;;;;;;;;;26.27;33.75;99136.25;6154869;23;19912;-63
2023/08/04 00:43:08;;;;;;;;;;;;;;;26.27;33.81;99130.75;6155167;23;19964;-64
2023/08/04 00:45:34;;;;;;;;;;;;;;;26.26;34.25;99142.91;6154970;23;19908;-64
2023/08/04 00:48:00;;;;;;;;;;;;;;;26.25;34.03;99135.78;6154371;23;19955;-64
2023/08/04 00:50:26;;;;;;;;;;;;;;;26.26;33.81;99140.97;6155330;23;19935;-64
2023/08/04 00:52:51;;;;;;;;;;;;;;;26.27;34.06;99142.56;6129099;23;19909;-64
2023/08/04 00:55:17;;;;;;;;;;;;;;;26.27;33.79;99134.31;6129584;23;20553;-64
2023/08/04 00:57:42;;;;;;;;;;;;;;;26.26;34.00;99140.97;6155255;23;20365;-64
2023/08/04 01:00:08;;;;;;;;;;;;;;;26.24;34.12;99139.66;6155189;23;19915;-64
2023/08/04 01:02:34;;;;;;;;;;;;;;;26.22;33.98;99153.75;6155163;23;19917;-64
2023/08/04 01:05:00;;;;;;;;;;;;;;;26.17;33.94;99150.38;6129149;23;20246;-64
2023/08/04 01:07:27;;;;;;;;;;;;;;;26.13;34.06;99150.22;6155230;23;19968;-64
2023/08/04 01:09:55;;;;;;;;;;;;;;;26.13;33.85;99146.69;6155526;23;19909;-64
2023/08/04 01:12:42;;;;;;;;;;;;;;;26.10;33.94;99142.66;6155494;23;19962;-64
2023/08/04 01:15:09;;;;;;;;;;;;;;;26.16;34.11;99144.06;6135286;23;20008;-64
2023/08/04 01:17:35;;;;;;;;;;;;;;;26.18;34.28;99150.06;6154793;23;19908;-64
2023/08/04 01:20:01;;;;;;;;;;;;;;;26.19;34.22;99156.38;6128677;23;20307;-63
2023/08/04 01:22:26;;;;;;;;;;;;;;;26.23;34.52;99163.63;6154691;23;19915;-63
2023/08/04 01:24:52;;;;;;;;;;;;;;;26.25;34.19;99160.56;6128731;23;20500;-64
2023/08/04 01:27:22;;;;;;;;;;;;;;;26.22;34.12;99161.22;6155011;23;19934;-64
2023/08/04 01:29:47;;;;;;;;;;;;;;;26.19;34.16;99170.16;6154559;23;19938;-63
2023/08/04 01:32:13;;;;;;;;;;;;;;;26.19;34.58;99168.19;6154460;23;19920;-63
2023/08/04 01:34:41;;;;;;;;;;;;;;;26.20;34.21;99166.25;6128409;23;19920;-62
2023/08/04 01:37:07;;;;;;;;;;;;;;;26.22;34.45;99173.03;6129125;23;20234;-63
2023/08/04 01:39:32;;;;;;;;;;;;;;;26.20;34.68;99175.28;6154895;23;19924;-63
2023/08/04 01:41:57;;;;;;;;;;;;;;;26.28;34.07;99179.19;6155118;23;19955;-63
2023/08/04 01:44:22;;;;;;;;;;;;;;;26.28;34.37;99179.19;6155175;23;20389;-63
2023/08/04 01:46:48;;;;;;;;;;;;;;;26.31;34.16;99177.69;6154134;23;19912;-64
2023/08/04 01:49:13;;;;;;;;;;;;;;;26.31;34.25;99184.00;6155570;23;19936;-63
2023/08/04 01:51:38;;;;;;;;;;;;;;;26.32;34.28;99179.28;6154849;23;20327;-64
2023/08/04 01:54:03;;;;;;;;;;;;;;;26.36;34.38;99183.03;6154930;23;20230;-64
2023/08/04 01:56:29;;;;;;;;;;;;;;;26.41;34.29;99189.16;6154792;23;19909;-64
2023/08/04 01:58:54;;;;;;;;;;;;;;;26.38;34.48;99184.31;6154882;23;19912;-63
2023/08/04 02:01:19;;;;;;;;;;;;;;;26.39;34.62;99188.69;6154974;23;19908;-64
2023/08/04 02:03:45;;;;;;;;;;;;;;;26.39;34.54;99185.94;6156367;23;19916;-63
2023/08/04 02:06:10;;;;;;;;;;;;;;;26.40;34.54;99187.53;6156249;23;20315;-62
2023/08/04 02:08:35;;;;;;;;;;;;;;;26.42;34.40;99189.94;6156189;23;19939;-63
2023/08/04 02:11:01;;;;;;;;;;;;;;;26.48;34.43;99179.56;6156137;23;19990;-63
2023/08/04 02:13:26;;;;;;;;;;;;;;;26.48;34.80;99188.63;6156383;23;19909;-63
2023/08/04 02:15:51;;;;;;;;;;;;;;;26.48;34.40;99187.81;6156099;23;19909;-63
2023/08/04 02:18:16;;;;;;;;;;;;;;;26.51;34.42;99192.69;6155920;23;19915;-64
2023/08/04 02:20:42;;;;;;;;;;;;;;;26.56;34.34;99196.03;6156485;23;19936;-64
2023/08/04 02:23:07;;;;;;;;;;;;;;;26.55;34.53;99197.16;6155879;23;19909;-63
2023/08/04 02:25:33;;;;;;;;;;;;;;;26.56;34.41;99201.56;6155967;23;20039;-64
2023/08/04 02:27:58;;;;;;;;;;;;;;;26.62;34.67;99197.50;6156013;23;20286;-63
2023/08/04 02:30:24;;;;;;;;;;;;;;;26.63;34.35;99201.03;6156580;23;19924;-64
2023/08/04 02:32:49;;;;;;;;;;;;;;;26.62;34.57;99204.97;6156013;23;20019;-64
2023/08/04 02:35:14;;;;;;;;;;;;;;;26.64;34.28;99208.19;6155908;23;20346;-64
2023/08/04 02:37:39;;;;;;;;;;;;;;;26.62;34.48;99204.97;6129957;23;19989;-64
2023/08/04 02:40:05;;;;;;;;;;;;;;;26.63;34.34;99212.06;6156334;23;19908;-64
2023/08/04 02:42:31;;;;;;;;;;;;;;;26.63;34.27;99215.66;6156588;23;20230;-64
2023/08/04 02:44:57;;;;;;;;;;;;;;;26.64;34.50;99219.19;6156563;23;20338;-64
2023/08/04 02:47:22;;;;;;;;;;;;;;;26.63;34.55;99214.81;6155739;23;19991;-63
2023/08/04 02:49:48;;;;;;;;;;;;;;;26.60;34.43;99210.00;6156500;23;20307;-63
2023/08/04 02:52:16;;;;;;;;;;;;;;;26.62;34.46;99211.25;6156381;23;20456;-63
2023/08/04 02:54:41;;;;;;;;;;;;;;;26.60;34.52;99216.31;6156161;23;19909;-65
2023/08/04 02:57:06;;;;;;;;;;;;;;;26.63;34.50;99217.56;6156232;23;20306;-65
2023/08/04 02:59:32;;;;;;;;;;;;;;;26.64;34.63;99220.00;6156690;23;19916;-65
2023/08/04 03:01:57;;;;;;;;;;;;;;;26.66;34.41;99225.19;6155946;23;19971;-62
2023/08/04 03:04:22;;;;;;;;;;;;;;;26.65;34.55;99220.78;6156308;23;19912;-65
2023/08/04 03:06:48;;;;;;;;;;;;;;;26.65;34.72;99229.88;6156465;23;19913;-65
2023/08/04 03:09:13;;;;;;;;;;;;;;;26.64;34.62;99227.47;6156519;23;19956;-65
2023/08/04 03:11:38;;;;;;;;;;;;;;;26.60;34.55;99230.06;6130216;23;19913;-65
2023/08/04 03:14:04;;;;;;;;;;;;;;;26.68;34.69;99235.88;6130371;23;19908;-63
2023/08/04 03:16:29;;;;;;;;;;;;;;;26.71;34.69;99237.94;6156325;23;19908;-62
2023/08/04 03:18:54;;;;;;;;;;;;;;;26.71;34.76;99241.53;6105293;23;19916;-65
2023/08/04 03:21:20;;;;;;;;;;;;;;;26.70;34.58;99247.34;6155929;23;20341;-63
2023/08/04 03:23:46;;;;;;;;;;;;;;;26.72;34.63;99242.31;6156354;23;19908;-65
2023/08/04 03:26:11;;;;;;;;;;;;;;;26.73;34.42;99253.00;6155958;23;20274;-65
2023/08/04 03:28:36;;;;;;;;;;;;;;;26.71;34.69;99246.22;6156089;23;19909;-65
2023/08/04 03:31:02;;;;;;;;;;;;;;;26.75;34.54;99245.22;6156125;23;20313;-65
2023/08/04 03:33:27;;;;;;;;;;;;;;;26.76;34.73;99244.06;6156015;23;19915;-63
2023/08/04 03:35:53;;;;;;;;;;;;;;;26.81;34.28;99248.59;6156036;23;19912;-65
2023/08/04 03:38:18;;;;;;;;;;;;;;;26.87;34.43;99249.22;6155503;23;19930;-65
2023/08/04 03:40:43;;;;;;;;;;;;;;;26.89;34.53;99256.00;6155648;23;19955;-65
2023/08/04 03:43:08;;;;;;;;;;;;;;;26.92;34.30;99251.78;6155732;23;19908;-65
2023/08/04 03:45:34;;;;;;;;;;;;;;;26.92;34.16;99257.28;6155570;23;19908;-65
2023/08/04 03:47:59;;;;;;;;;;;;;;;26.92;34.46;99260.06;6154648;23;19952;-64
2023/08/04 03:50:25;;;;;;;;;;;;;;;26.90;34.78;99256.81;6155554;23;20044;-66
2023/08/04 03:52:50;;;;;;;;;;;;;;;26.92;34.44;99260.06;6155327;23;19908;-63
2023/08/04 03:55:16;;;;;;;;;;;;;;;26.93;34.76;99256.97;6155200;23;19943;-63
2023/08/04 03:57:41;;;;;;;;;;;;;;;26.96;34.86;99270.06;6155377;23;19908;-63
2023/08/04 04:00:07;;;;;;;;;;;;;;;27.01;34.69;99261.59;6155105;23;19963;-63
2023/08/04 04:02:33;;;;;;;;;;;;;;;27.04;34.61;99266.47;6155304;23;20102;-63
2023/08/04 04:04:58;;;;;;;;;;;;;;;27.08;34.70;99272.13;6156025;23;20009;-63
2023/08/04 04:07:23;;;;;;;;;;;;;;;27.12;34.49;99277.78;6155718;23;20023;-63
2023/08/04 04:09:49;;;;;;;;;;;;;;;27.15;34.65;99275.13;6155161;23;20011;-63
2023/08/04 04:12:14;;;;;;;;;;;;;;;27.15;34.65;99272.38;6155557;23;19912;-63
2023/08/04 04:14:39;;;;;;;;;;;;;;;27.18;34.59;99281.94;6155631;23;20207;-63
2023/08/04 04:17:05;;;;;;;;;;;;;;;27.26;34.68;99283.06;6129253;23;19908;-63
2023/08/04 04:19:30;;;;;;;;;;;;;;;27.31;34.39;99291.94;6155202;23;19988;-63
2023/08/04 04:21:55;;;;;;;;;;;;;;;27.38;34.29;99289.47;6155635;23;19959;-63
2023/08/04 04:24:20;;;;;;;;;;;;;;;27.40;34.39;99291.88;6155196;23;19913;-63
2023/08/04 04:26:46;;;;;;;;;;;;;;;27.45;34.33;99282.59;6155601;23;19913;-62
2023/08/04 04:29:11;;;;;;;;;;;;;;;27.48;34.29;99288.25;6155676;23;20246;-63
2023/08/04 04:31:37;;;;;;;;;;;;;;;27.44;34.17;99290.06;6155623;23;19981;-63
2023/08/04 04:34:02;;;;;;;;;;;;;;;27.50;34.13;99301.69;6129071;23;19932;-63
2023/08/04 04:36:28;;;;;;;;;;;;;;;27.52;34.47;99293.91;6155671;23;19944;-63
2023/08/04 04:38:53;;;;;;;;;;;;;;;27.54;34.45;99294.38;6155150;23;19995;-63
2023/08/04 04:41:18;;;;;;;;;;;;;;;27.56;34.35;99301.19;6155190;23;19951;-63
2023/08/04 04:43:44;;;;;;;;;;;;;;;27.60;34.27;99293.84;6155000;23;19920;-63
2023/08/04 04:46:10;;;;;;;;;;;;;;;27.66;34.27;99296.41;6155329;23;19912;-63
2023/08/04 04:48:35;;;;;;;;;;;;;;;27.71;34.22;99307.22;6154626;23;19940;-63
2023/08/04 04:51:01;;;;;;;;;;;;;;;27.74;34.38;99309.31;6155003;23;20009;-63
2023/08/04 04:53:26;;;;;;;;;;;;;;;27.79;34.17;99307.16;6155130;23;20011;-63
2023/08/04 04:55:51;;;;;;;;;;;;;;;27.82;34.36;99305.66;6155374;23;19955;-63
2023/08/04 04:58:16;;;;;;;;;;;;;;;27.86;34.02;99303.03;6155433;23;19915;-63
2023/08/04 05:00:42;;;;;;;;;;;;;;;27.87;34.38;99307.41;6155276;23;19985;-63
2023/08/04 05:03:09;;;;;;;;;;;;;;;27.88;34.24;99311.78;6155060;23;19924;-63
2023/08/04 05:05:34;;;;;;;;;;;;;;;27.90;34.02;99323.34;6154854;23;19932;-63
2023/08/04 05:08:00;;;;;;;;;;;;;;;27.88;34.39;99311.78;6154831;23;20299;-63
2023/08/04 05:10:26;;;;;;;;;;;;;;;27.90;34.25;99323.34;6154775;23;19956;-63
2023/08/04 05:12:51;;;;;;;;;;;;;;;27.94;33.96;99324.28;6154976;23;19909;-63
2023/08/04 05:15:16;;;;;;;;;;;;;;;27.97;33.91;99327.16;6155220;23;20200;-62
2023/08/04 05:17:42;;;;;;;;;;;;;;;28.00;34.01;99326.47;6155434;23;19996;-63
2023/08/04 05:20:07;;;;;;;;;;;;;;;28.04;34.04;99325.78;6154914;23;20341;-63
2023/08/04 05:22:33;;;;;;;;;;;;;;;28.07;33.90;99327.88;6155022;23;19918;-63
2023/08/04 05:24:58;;;;;;;;;;;;;;;28.09;34.14;99333.88;6154992;23;20218;-63
2023/08/04 05:27:24;;;;;;;;;;;;;;;28.07;33.95;99336.97;6155142;23;19920;-63
2023/08/04 05:29:49;;;;;;;;;;;;;;;28.08;33.90;99340.53;6154516;23;19915;-63
2023/08/04 05:32:14;;;;;;;;;;;;;;;28.10;33.62;99343.75;6154715;23;19943;-63
2023/08/04 05:34:40;;;;;;;;;;;;;;;28.11;33.81;99343.41;6154911;23;19913;-63
2023/08/04 05:37:05;;;;;;;;;;;;;;;28.10;33.73;99347.34;6130190;23;19987;-63
2023/08/04 05:39:32;;;;;;;;;;;;;;;28.17;33.77;99350.34;6156749;23;20211;-63
2023/08/04 05:41:57;;;;;;;;;;;;;;;28.25;34.13;99351.44;6156635;23;20049;-63
2023/08/04 05:44:22;;;;;;;;;;;;;;;28.35;33.69;99356.50;6156651;23;19952;-63
2023/08/04 05:46:48;;;;;;;;;;;;;;;28.38;33.46;99350.31;6155643;23;19920;-63
2023/08/04 05:49:13;;;;;;;;;;;;;;;28.41;33.14;99357.09;6156560;23;19948;-62
2023/08/04 05:51:39;;;;;;;;;;;;;;;28.44;33.28;99355.63;6156824;23;19912;-63
2023/08/04 05:54:04;;;;;;;;;;;;;;;28.46;33.08;99362.41;6156701;23;19908;-63
2023/08/04 05:56:29;;;;;;;;;;;;;;;28.47;33.10;99366.81;6156299;23;20220;-63
2023/08/04 05:58:54;;;;;;;;;;;;;;;28.52;33.42;99368.53;6156456;23;19991;-63
2023/08/04 06:01:20;;;;;;;;;;;;;;;28.57;33.13;99374.69;6156228;23;19998;-63
2023/08/04 06:03:45;;;;;;;;;;;;;;;28.63;33.35;99372.50;6155965;23;19917;-63
2023/08/04 06:06:10;;;;;;;;;;;;;;;28.66;32.70;99376.53;6156290;23;19913;-64
2023/08/04 06:08:36;;;;;;;;;;;;;;;28.72;32.93;99373.22;6156374;23;20215;-63
2023/08/04 06:11:01;;;;;;;;;;;;;;;28.78;32.84;99382.09;6156347;23;19908;-64
2023/08/04 06:13:26;;;;;;;;;;;;;;;28.81;32.68;99381.41;6156428;23;20314;-64
2023/08/04 06:15:52;;;;;;;;;;;;;;;28.84;32.87;99393.72;6156316;23;20350;-64
2023/08/04 06:18:17;;;;;;;;;;;;;;;28.84;32.39;99386.22;6156189;23;19908;-64
2023/08/04 06:20:42;;;;;;;;;;;;;;;28.88;32.67;99392.72;6156185;23;19912;-64
2023/08/04 06:23:08;;;;;;;;;;;;;;;28.94;32.76;99396.88;6156455;23;19964;-63
2023/08/04 06:25:34;;;;;;;;;;;;;;;28.98;32.78;99396.97;6156657;23;19963;-64
2023/08/04 06:27:59;;;;;;;;;;;;;;;29.04;32.81;99403.09;6156472;23;19928;-64
2023/08/04 06:30:25;;;;;;;;;;;;;;;29.08;32.64;99399.28;6156322;23;19916;-64
2023/08/04 06:32:50;;;;;;;;;;;;;;;29.15;32.67;99407.06;6130209;23;19909;-64
2023/08/04 06:35:16;;;;;;;;;;;;;;;29.17;32.53;99406.72;6130133;23;19915;-64
2023/08/04 06:37:41;;;;;;;;;;;;;;;29.22;32.79;99415.59;6156486;23;19915;-64
2023/08/04 06:40:07;;;;;;;;;;;;;;;29.26;32.01;99419.28;6156530;23;19936;-64
2023/08/04 06:42:32;;;;;;;;;;;;;;;29.30;32.21;99422.16;6156093;23;20283;-63
2023/08/04 06:44:57;;;;;;;;;;;;;;;29.33;32.19;99430.56;6156619;23;19916;-64
2023/08/04 06:47:23;;;;;;;;;;;;;;;29.35;31.60;99435.75;6154931;23;19995;-64
2023/08/04 06:49:49;;;;;;;;;;;;;;;29.37;31.96;99430.69;6155934;23;19939;-64
2023/08/04 06:52:14;;;;;;;;;;;;;;;29.39;31.71;99433.13;6156270;23;19960;-64
2023/08/04 06:54:39;;;;;;;;;;;;;;;29.44;31.81;99438.38;6156236;23;20289;-64
2023/08/04 06:57:05;;;;;;;;;;;;;;;29.46;31.32;99447.97;6155797;23;20196;-64
2023/08/04 06:59:30;;;;;;;;;;;;;;;29.54;31.80;99449.00;6155809;23;19920;-64
2023/08/04 07:01:56;;;;;;;;;;;;;;;29.54;31.41;99449.00;6155435;23;19967;-64
2023/08/04 07:04:21;;;;;;;;;;;;;;;29.59;31.64;99450.72;6156007;23;19909;-63
2023/08/04 07:06:46;;;;;;;;;;;;;;;29.61;31.64;99454.78;6156056;23;19913;-63
2023/08/04 07:09:12;;;;;;;;;;;;;;;29.69;31.46;99453.84;6156366;23;19916;-64
2023/08/04 07:11:37;;;;;;;;;;;;;;;29.77;31.59;99456.88;6155965;23;19913;-63
2023/08/04 07:14:03;;;;;;;;;;;;;;;29.83;31.54;99466.53;6129707;23;19917;-64
2023/08/04 07:16:28;;;;;;;;;;;;;;;29.88;31.33;99474.59;6156151;23;19915;-62
2023/08/04 07:18:53;;;;;;;;;;;;;;;29.92;31.55;99469.97;6155539;23;19914;-64
2023/08/04 07:21:19;;;;;;;;;;;;;;;30.02;31.04;99477.81;6155132;23;19940;-63
2023/08/04 07:23:44;;;;;;;;;;;;;;;30.05;31.08;99481.84;6155931;23;19928;-64
2023/08/04 07:26:09;;;;;;;;;;;;;;;30.09;31.16;99482.78;6105189;23;19967;-64
2023/08/04 07:28:36;;;;;;;;;;;;;;;30.14;31.42;99485.28;6155971;23;19916;-64
2023/08/04 07:31:07;;;;;;;;;;;;;;;30.19;31.19;99487.81;6154939;23;19909;-64
2023/08/04 07:33:33;;;;;;;;;;;;;;;30.25;31.17;99499.47;6155081;23;19915;-64
2023/08/04 07:35:59;;;;;;;;;;;;;;;30.31;30.88;99498.06;6155390;23;20488;-65
2023/08/04 07:38:25;;;;;;;;;;;;;;;30.39;30.86;99505.47;6155048;23;19912;-64
2023/08/04 07:40:51;;;;;;;;;;;;;;;30.43;30.46;99508.34;6155199;23;20323;-64
2023/08/04 07:43:16;;;;;;;;;;;;;;;30.48;30.69;99494.25;6154650;23;19909;-64
2023/08/04 07:45:42;;;;;;;;;;;;;;;30.52;30.21;99500.69;6155076;23;20270;-64
2023/08/04 07:48:07;;;;;;;;;;;;;;;30.65;30.52;99507.00;6155028;23;19909;-65
2023/08/04 07:50:35;;;;;;;;;;;;;;;30.69;30.64;99505.94;6155866;23;19919;-65
2023/08/04 07:53:00;;;;;;;;;;;;;;;30.76;30.05;99510.88;6155606;23;20219;-65
2023/08/04 07:55:25;;;;;;;;;;;;;;;30.82;30.18;99516.97;6155962;23;20274;-64
2023/08/04 07:57:51;;;;;;;;;;;;;;;30.84;29.86;99512.69;6155513;23;19916;-64
2023/08/04 08:00:16;;;;;;;;;;;;;;;30.88;29.62;99518.34;6155323;23;19909;-64
2023/08/04 08:02:41;;;;;;;;;;;;;;;30.87;29.58;99522.28;6129052;23;19923;-64
2023/08/04 08:05:08;;;;;;;;;;;;;;;31.02;30.02;99527.09;6155701;23;20334;-65
2023/08/04 08:07:35;;;;;;;;;;;;;;;31.11;29.98;99526.94;6154614;23;20452;-66
2023/08/04 08:10:00;;;;;;;;;;;;;;;31.15;30.19;99529.75;6155702;23;20302;-64
2023/08/04 08:12:26;;;;;;;;;;;;;;;31.20;29.14;99529.50;6155404;23;20291;-64
2023/08/04 08:14:51;;;;;;;;;;;;;;;31.29;29.57;99537.69;6155918;23;19908;-64
2023/08/04 08:17:17;;;;;;;;;;;;;;;31.35;29.55;99539.03;6129345;23;19908;-65
2023/08/04 08:19:42;;;;;;;;;;;;;;;31.41;29.52;99543.16;6155494;23;19915;-65
2023/08/04 08:22:08;;;;;;;;;;;;;;;31.51;29.72;99545.41;6155634;23;19930;-65
2023/08/04 08:24:33;;;;;;;;;;;;;;;31.56;29.40;99542.38;6155055;23;19960;-65
2023/08/04 08:26:58;;;;;;;;;;;;;;;31.65;29.04;99553.31;6155503;23;19927;-65
2023/08/04 08:29:24;;;;;;;;;;;;;;;31.70;29.51;99547.47;6155299;23;19992;-65
2023/08/04 08:31:49;;;;;;;;;;;;;;;31.72;29.28;99550.69;6155335;23;20322;-65
2023/08/04 08:34:14;;;;;;;;;;;;;;;31.75;29.40;99557.53;6155354;23;19913;-65
2023/08/04 08:36:40;;;;;;;;;;;;;;;31.75;29.23;99554.75;6155165;23;19915;-64
2023/08/04 08:39:05;;;;;;;;;;;;;;;31.73;28.43;99557.06;6155291;23;19908;-65
2023/08/04 08:41:30;;;;;;;;;;;;;;;31.77;28.77;99563.50;6155120;23;19915;-65
2023/08/04 08:43:56;;;;;;;;;;;;;;;31.70;28.64;99555.00;6155186;23;19955;-65
2023/08/04 08:46:21;;;;;;;;;;;;;;;31.74;28.75;99555.91;6154538;23;19912;-64
2023/08/04 08:48:49;;;;;;;;;;;;;;;31.79;29.03;99556.44;6155310;23;19987;-65
2023/08/04 08:51:16;;;;;;;;;;;;;;;31.77;28.80;99558.75;6155607;23;19915;-64
2023/08/04 08:53:42;;;;;;;;;;;;;;;31.69;28.74;99564.50;6155330;23;19943;-64
2023/08/04 08:56:09;;;;;;;;;;;;;;;31.68;28.43;99568.44;6155164;23;20355;-65
2023/08/04 08:58:35;;;;;;;;;;;;;;;31.70;29.05;99572.47;6155084;23;19915;-64
2023/08/04 09:01:00;;;;;;;;;;;;;;;31.68;29.14;99568.44;6155270;23;19948;-64
2023/08/04 09:03:27;;;;;;;;;;;;;;;31.68;28.39;99574.78;6154850;23;20353;-64
2023/08/04 09:05:52;;;;;;;;;;;;;;;31.77;28.82;99572.63;6155325;23;19937;-64
2023/08/04 09:08:18;;;;;;;;;;;;;;;31.86;28.34;99577.22;6154989;23;20243;-65
2023/08/04 09:10:44;;;;;;;;;;;;;;;31.96;28.38;99583.00;6155543;23;19915;-65
2023/08/04 09:13:11;;;;;;;;;;;;;;;31.97;28.44;99576.31;6157489;23;19939;-65
2023/08/04 09:15:47;;;;;;;;;;;;;;;32.03;27.62;99579.66;6157135;23;19944;-65
2023/08/04 09:18:32;;;;;;;;;;;;;;;32.15;28.82;99585.09;6157095;23;19909;-65
2023/08/04 09:21:17;;;;;;;;;;;;;;;32.17;28.51;99584.72;6157226;23;19915;-64
2023/08/04 09:23:50;;;;;;;;;;;;;;;32.32;28.74;99591.44;6157606;23;19912;-64
2023/08/04 09:26:15;;;;;;;;;;;;;;;32.41;29.05;99601.19;6157252;23;20390;-64
2023/08/04 09:28:41;;;;;;;;;;;;;;;32.42;28.63;99601.97;6157191;23;19919;-64
2023/08/04 09:31:07;;;;;;;;;;;;;;;32.46;29.40;99602.88;6157402;23;19924;-64
2023/08/04 09:33:34;;;;;;;;;;;;;;;32.50;28.92;99608.50;6157858;23;19958;-64
2023/08/04 09:36:03;;;;;;;;;;;;;;;32.52;28.48;99614.50;6158318;23;19938;-64
2023/08/04 09:38:28;;;;;;;;;;;;;;;32.59;28.66;99611.91;6158235;23;19908;-64
2023/08/04 09:41:00;;;;;;;;;;;;;;;32.65;28.26;99613.22;6158077;23;20388;-64
2023/08/04 09:43:25;;;;;;;;;;;;;;;32.70;29.04;99614.94;6131218;23;19909;-64
2023/08/04 09:45:56;;;;;;;;;;;;;;;32.73;28.20;99612.22;6156916;23;19940;-64
2023/08/04 09:48:24;;;;;;;;;;;;;;;32.74;28.57;99619.38;6156206;23;19994;-64
2023/08/04 09:50:50;;;;;;;;;;;;;;;32.75;28.32;99620.22;6157086;23;19940;-64
2023/08/04 09:53:15;;;;;;;;;;;;;;;32.73;28.65;99617.00;6157033;23;19935;-63
2023/08/04 09:55:41;;;;;;;;;;;;;;;32.70;27.91;99629.63;6156830;23;20219;-65
2023/08/04 09:58:07;;;;;;;;;;;;;;;32.72;28.84;99623.72;6157056;23;19912;-65
2023/08/04 10:00:32;;;;;;;;;;;;;;;32.76;28.28;99627.38;6156849;23;19915;-65
2023/08/04 10:02:58;;;;;;;;;;;;;;;32.72;28.25;99638.41;6156696;23;20327;-65
2023/08/04 10:05:24;;;;;;;;;;;;;;;32.66;28.59;99631.53;6156821;23;20392;-64
2023/08/04 10:07:49;;;;;;;;;;;;;;;32.71;28.51;99639.59;6156830;23;19912;-65
2023/08/04 10:10:15;;;;;;;;;;;;;;;32.70;28.26;99632.41;6156957;23;20404;-65
2023/08/04 10:12:40;;;;;;;;;;;;;;;32.74;28.36;99644.41;6156526;23;19919;-65
2023/08/04 10:15:07;;;;;;;;;;;;;;;32.82;27.83;99642.63;6156705;23;19909;-65
2023/08/04 10:17:33;;;;;;;;;;;;;;;33.02;28.12;99642.63;6156793;23;19944;-65
2023/08/04 10:20:05;;;;;;;;;;;;;;;33.17;27.69;99647.31;6156616;23;20223;-65
2023/08/04 10:22:32;;;;;;;;;;;;;;;33.36;27.58;99652.09;6156334;23;20274;-65
2023/08/04 10:24:57;;;;;;;;;;;;;;;33.62;27.56;99653.34;6156549;23;19916;-65
2023/08/04 10:27:23;;;;;;;;;;;;;;;33.83;27.02;99650.19;6156720;23;19952;-65
2023/08/04 10:30:02;;;;;;;;;;;;;;;33.98;26.52;99657.63;6156486;23;20287;-65
2023/08/04 10:32:34;;;;;;;;;;;;;;;34.05;26.76;99663.31;6155965;23;19987;-65
2023/08/04 10:34:59;;;;;;;;;;;;;;;34.04;27.01;99655.31;6156058;23;19908;-65
2023/08/04 10:37:25;;;;;;;;;;;;;;;34.02;26.57;99655.69;6156662;23;19915;-65
2023/08/04 10:39:56;;;;;;;;;;;;;;;34.04;26.99;99663.69;6156394;23;19943;-65
2023/08/04 10:42:22;;;;;;;;;;;;;;;34.05;25.92;99657.75;6156467;23;19909;-65
2023/08/04 10:44:49;;;;;;;;;;;;;;;34.05;26.45;99659.72;6156677;23;19931;-65
2023/08/04 10:47:15;;;;;;;;;;;;;;;34.07;26.12;99665.72;6155340;23;19913;-65
2023/08/04 10:49:41;;;;;;;;;;;;;;;34.07;26.29;99660.16;6156225;23;19908;-65
2023/08/04 10:52:06;;;;;;;;;;;;;;;34.05;26.40;99665.31;6156037;23;19909;-65
2023/08/04 10:54:31;;;;;;;;;;;;;;;34.01;26.37;99662.47;6155721;23;19960;-65
2023/08/04 10:56:57;;;;;;;;;;;;;;;33.96;25.86;99662.75;6155926;23;20508;-65
2023/08/04 10:59:22;;;;;;;;;;;;;;;34.01;26.05;99672.78;6155935;23;19909;-65
2023/08/04 11:01:48;;;;;;;;;;;;;;;34.05;27.53;99668.88;6155967;23;19924;-65
2023/08/04 11:04:14;;;;;;;;;;;;;;;34.04;25.60;99674.81;6156017;23;19912;-65
2023/08/04 11:06:39;;;;;;;;;;;;;;;34.02;26.91;99672.41;6155823;23;20007;-65
2023/08/04 11:09:04;;;;;;;;;;;;;;;34.07;26.56;99672.09;6155813;23;19932;-65
2023/08/04 11:11:30;;;;;;;;;;;;;;;34.06;26.20;99675.25;6156553;23;19908;-65
2023/08/04 11:13:56;;;;;;;;;;;;;;;34.06;26.29;99678.03;6155865;23;19916;-65
2023/08/04 11:16:23;;;;;;;;;;;;;;;34.05;26.30;99677.25;6156467;23;19908;-65
2023/08/04 11:18:48;;;;;;;;;;;;;;;34.04;26.38;99683.97;6155823;23;19908;-65
2023/08/04 11:21:14;;;;;;;;;;;;;;;34.03;26.00;99685.19;6155645;23;19909;-65
2023/08/04 11:23:39;;;;;;;;;;;;;;;34.04;25.80;99680.41;6129646;23;19908;-65
2023/08/04 11:26:07;;;;;;;;;;;;;;;34.09;25.94;99691.25;6155434;23;20057;-65
2023/08/04 11:28:34;;;;;;;;;;;;;;;34.10;25.42;99687.25;6129735;23;19955;-65
2023/08/04 11:31:06;;;;;;;;;;;;;;;34.09;26.03;99685.66;6155606;23;19909;-65
2023/08/04 11:33:31;;;;;;;;;;;;;;;34.17;26.02;99694.97;6155578;23;20307;-65
2023/08/04 11:35:57;;;;;;;;;;;;;;;34.20;25.79;99692.25;6155624;23;19915;-65
2023/08/04 11:38:22;;;;;;;;;;;;;;;34.30;26.03;99693.59;6130073;23;19909;-65
2023/08/04 11:40:55;;;;;;;;;;;;;;;34.33;25.54;99693.66;6155821;23;19908;-65
2023/08/04 11:43:21;;;;;;;;;;;;;;;34.44;25.75;99696.63;6155710;23;19936;-65
2023/08/04 11:45:47;;;;;;;;;;;;;;;34.46;25.64;99690.69;6155654;23;20319;-65
2023/08/04 11:48:12;;;;;;;;;;;;;;;34.55;25.02;99707.13;6155075;23;19972;-65
2023/08/04 11:50:37;;;;;;;;;;;;;;;34.61;25.97;99698.06;6155809;23;19938;-65
2023/08/04 11:53:03;;;;;;;;;;;;;;;34.69;25.91;99693.44;6156139;23;19912;-65
2023/08/04 11:55:28;;;;;;;;;;;;;;;34.69;26.76;99691.44;6156060;23;19917;-65
2023/08/04 11:57:55;;;;;;;;;;;;;;;34.69;26.49;99699.00;6155694;23;20330;-65
2023/08/04 12:00:32;;;;;;;;;;;;;;;34.73;26.71;99696.28;6155787;23;19987;-65
2023/08/04 12:02:59;;;;;;;;;;;;;;;34.79;26.48;99691.97;6155470;23;19991;-65
2023/08/04 12:05:28;;;;;;;;;;;;;;;34.81;26.38;99689.63;6155916;23;20294;-65
2023/08/04 12:07:55;;;;;;;;;;;;;;;34.83;26.01;99701.22;6155919;23;19923;-65
2023/08/04 12:10:21;;;;;;;;;;;;;;;34.96;26.28;99696.22;6155590;23;19915;-65
2023/08/04 12:12:46;;;;;;;;;;;;;;;35.01;26.07;99698.66;6155614;23;19999;-65
2023/08/04 12:15:12;;;;;;;;;;;;;;;34.94;24.53;99682.63;6155267;23;19908;-65
2023/08/04 12:17:38;;;;;;;;;;;;;;;35.13;26.18;99704.00;6155025;23;19931;-65
2023/08/04 12:20:06;;;;;;;;;;;;;;;35.13;25.36;99704.00;6154874;23;19940;-63
2023/08/04 12:22:35;;;;;;;;;;;;;;;35.17;25.40;99706.84;6154870;23;19940;-66
2023/08/04 12:25:02;;;;;;;;;;;;;;;35.24;25.54;99706.97;6155457;23;20342;-64
2023/08/04 12:27:28;;;;;;;;;;;;;;;35.26;25.47;99705.41;6155204;23;20242;-64
2023/08/04 12:29:54;;;;;;;;;;;;;;;35.29;25.25;99706.63;6155556;23;19913;-65
2023/08/04 12:32:19;;;;;;;;;;;;;;;35.29;25.80;99706.63;6155423;23;19947;-64
2023/08/04 12:34:44;;;;;;;;;;;;;;;35.32;25.95;99707.84;6155296;23;19908;-64
2023/08/04 12:37:10;;;;;;;;;;;;;;;35.30;25.51;99716.59;6155029;23;20495;-64
2023/08/04 12:39:35;;;;;;;;;;;;;;;35.26;25.08;99716.56;6155023;23;19909;-64
2023/08/04 12:42:00;;;;;;;;;;;;;;;35.30;25.75;99722.19;6155218;23;19908;-64